ADDS METAR Data INFO
IDs: Format: Raw Decoded Include TAF

Data at: 0217 UTC 14 Dec 2017

PAYA 140153Z AUTO 14012G30KT 3SM RA BR BKN010 OVC020 09/08 A2990 RMK AO2 PK WND 13035/0118 SLP126 P0009 T00940078 TSNO
PAYA 140053Z AUTO 14018G28KT 5SM RA BR BKN008 OVC013 09/08 A2989 RMK AO2 PK WND 13033/2355 SLP123 P0009 T00890078 TSNO
PAYA 132353Z AUTO 14013G30KT 3SM RA BR OVC008 09/08 A2991 RMK AO2 PK WND 12030/2332 SLP130 P0014 60073 T00890078 10094 20083 58006 TSNO
PAYA 132253Z AUTO 14021G29KT 2 1/2SM -RA BR OVC007 09/07 A2993 RMK AO2 PK WND 15036/2212 SLP134 P0010 T00890072 TSNO
PAYA 132237Z AUTO 14018G33KT 2SM RA BR BKN008 OVC015 09/07 A2992 RMK AO2 PK WND 15036/2212 P0008 T00890072 TSNO $
PAYA 132215Z AUTO 13017G36KT 3SM -RA BR BKN009 OVC013 09/07 A2992 RMK AO2 PK WND 15036/2212 P0003 T00890072 TSNO $
PAYA 132205Z AUTO 14019G29KT 2 1/2SM RA BR OVC009 09/07 A2992 RMK AO2 PK WND 13029/2157 P0003 T00890072 TSNO $
PAYA 132153Z AUTO 14018G32KT 3SM RA BR OVC009 09/07 A2993 RMK AO2 PK WND 13037/2135 SLP134 P0010 T00890072 TSNO $
PAYA 132137Z AUTO 13017G37KT 2 1/2SM RA BR OVC009 09/07 A2993 RMK AO2 PK WND 13037/2135 P0007 T00890072 TSNO $
PAYA 132115Z AUTO 14018G30KT 2SM RA BR OVC010 09/08 A2994 RMK AO2 PK WND 13030/2112 P0002 T00890078 TSNO $
PAYA 132053Z AUTO 14018G31KT 3SM -RA BR OVC011 09/07 A2993 RMK AO2 PK WND 15035/2021 SLP136 P0009 60039 T00890072 56008 TSNO $
PAYA 132026Z AUTO 14020G35KT 2 1/2SM RA BR OVC014 09/07 A2994 RMK AO2 PK WND 15035/2021 VIS 2V3 P0006 T00890072 TSNO $
PAYA 131953Z AUTO 13019G33KT 4SM RA BR FEW012 OVC017 09/07 A2993 RMK AO2 PK WND 12034/1942 SLP137 P0013 T00940072 TSNO $
PAYA 131853Z AUTO 10013G23KT 4SM RA BR SCT015 OVC022 08/07 A2994 RMK AO2 PK WND 11029/1811 SLP139 P0017 T00830067 TSNO
PAYA 131810Z AUTO 11018G29KT 4SM RA BR SCT014 OVC020 08/07 A2995 RMK AO2 PK WND 10029/1801 P0005 T00830067 TSNO $
PAYA 131802Z AUTO 10018G29KT 4SM RA BR BKN014 OVC021 09/07 A2996 RMK AO2 PK WND 10029/1801 P0002 T00890067 TSNO
PAYA 131753Z AUTO 11016G28KT 4SM RA BR BKN015 OVC019 08/07 A2996 RMK AO2 PK WND 11028/1750 SLP145 P0016 60068 T00830067 10083 20056 58027 TSNO
PAYA 131653Z AUTO 10011G17KT 4SM RA BR SCT022 OVC027 08/07 A2999 RMK AO2 SLP157 P0017 T00780067 TSNO
PAYA 131605Z AUTO 09013KT 4SM RA BR FEW027 OVC034 08/06 A3000 RMK AO2 P0005 T00780061 TSNO
PAYA 131553Z AUTO 09010KT 6SM RA BR BKN028 OVC034 08/06 A3001 RMK AO2 SLP162 P0009 T00830061 TSNO
PAYA 131500Z AUTO 10010G17KT 7SM RA OVC031 08/06 A3003 RMK AO2 P0001 T00830061 TSNO
PAYA 131453Z AUTO 10010G17KT 7SM RA OVC029 08/06 A3004 RMK AO2 SLP172 P0003 60026 T00830061 56017 TSNO
PAYA 131353Z AUTO 07011KT 6SM -RA BR OVC022 06/04 A3004 RMK AO2 SLP174 P0012 T00610044 TSNO
PAYA 131253Z AUTO 08010KT 4SM RA BR OVC025 06/04 A3007 RMK AO2 SLP183 P0011 T00610044 TSNO
PAYA 131226Z AUTO 08009KT 5SM RA BR OVC028 06/04 A3008 RMK AO2 P0007 T00610039 TSNO
PAYA 131153Z AUTO 09008KT 5SM RA OVC036 06/03 A3009 RMK AO2 RAB1054 SLP189 P0005 60005 70018 T00610033 10061 20028 56015 TSNO
PAYA 131053Z AUTO VRB03KT 10SM FEW047 OVC055 04/02 A3010 RMK AO2 SLP191 T00390017 TSNO
PAYA 130953Z AUTO 06003KT 10SM FEW050 03/02 A3011 RMK AO2 SLP195 T00330022 TSNO
PAYA 130853Z AUTO 05004KT 10SM OVC060 03/02 A3013 RMK AO2 SLP204 T00330022 400610006 58014 TSNO
PAYA 130753Z AUTO 04005KT 10SM CLR 04/02 A3014 RMK AO2 SLP207 T00390022 TSNO
PAYA 130653Z AUTO 06006KT 10SM FEW055 04/03 A3017 RMK AO2 SLP215 T00390028 TSNO
PAYA 130553Z AUTO 12004KT 10SM CLR 03/02 A3017 RMK AO2 SLP218 T00280017 10056 20022 57001 TSNO
PAYA 130453Z AUTO 10003KT 10SM CLR 03/02 A3017 RMK AO2 SLP216 T00330022 TSNO
PAYA 130433Z AUTO 11004KT 10SM SCT010 03/02 A3018 RMK AO2 T00330022 TSNO
PAYA 130421Z AUTO 08004KT 10SM BKN010 03/02 A3018 RMK AO2 T00330022 TSNO
PAYA 130353Z AUTO 08003KT 10SM BKN009 03/02 A3018 RMK AO2 CIG 008V012 SLP220 T00280022 TSNO
PAYA 130346Z AUTO 08003KT 10SM BKN009 03/02 A3018 RMK AO2 CIG 008V012 T00280017 TSNO
PAYA 130253Z AUTO 10003KT 10SM FEW060 03/02 A3018 RMK AO2 SLP218 T00330022 58001 TSNO
PAYA 130153Z AUTO 05004KT 10SM OVC065 04/03 A3019 RMK AO2 SLP222 T00390033 TSNO
PAYA 130125Z AUTO 12003KT 9SM SCT021 OVC065 04/04 A3019 RMK AO2 T00390039 TSNO
PAYA 130116Z AUTO 10003KT 10SM BKN021 BKN070 04/03 A3019 RMK AO2 T00390033 TSNO
PAYA 130053Z AUTO 07003KT 10SM FEW020 BKN070 04/04 A3020 RMK AO2 SLP225 T00440039 TSNO
PAYA 122353Z AUTO 00000KT 10SM BKN070 06/04 A3018 RMK AO2 SLP220 60002 T00560044 10061 20039 53006 TSNO $
PAYA 122312Z AUTO 08004KT 10SM SCT003 OVC033 06/06 A3017 RMK AO2 T00610056 TSNO
PAYA 122253Z AUTO 07005KT 7SM OVC003 06/06 A3016 RMK AO2 SLP214 T00610056 TSNO
PAYA 122249Z AUTO 07005KT 5SM BR OVC003 06/06 A3016 RMK AO2 TSNO
PAYA 122240Z AUTO 07006KT 2 1/2SM BR OVC003 06/06 A3017 RMK AO2 T00610056 TSNO
PAYA 122220Z AUTO 06006KT 1 3/4SM BR OVC003 06/05 A3016 RMK AO2 T00610050 TSNO
PAYA 122204Z AUTO 07007KT 9SM BKN004 OVC033 06/05 A3016 RMK AO2 T00610050 TSNO
PAYA 122153Z AUTO 07006KT 10SM BKN005 OVC033 06/05 A3016 RMK AO2 SLP214 T00610050 TSNO
PAYA 122151Z AUTO 07007KT 10SM BKN005 OVC033 06/06 A3016 RMK AO2 TSNO
PAYA 122144Z AUTO 07005KT 10SM SCT003 OVC033 06/06 A3016 RMK AO2 T00610056 TSNO
PAYA 122053Z AUTO 09005KT 10SM BKN004 BKN008 OVC030 06/05 A3015 RMK AO2 RAB1956E22 SLP210 P0002 60002 T00560050 51027 TSNO
PAYA 122036Z AUTO 10006KT 10SM SCT004 BKN028 OVC033 06/05 A3015 RMK AO2 RAB1956E22 P0002 T00560050 TSNO
PAYA 122027Z AUTO 09007KT 10SM SCT004 OVC032 06/04 A3015 RMK AO2 RAB1956E22 P0002 T00560044 TSNO
PAYA 121953Z AUTO 12003KT 10SM BKN006 OVC033 05/04 A3015 RMK AO2 SLP209 T00500039 TSNO
PAYA 121853Z AUTO 07003KT 10SM OVC007 04/03 A3011 RMK AO2 SLP196 T00440028 TSNO
PAYA 121821Z AUTO 07003KT 10SM BKN008 BKN050 OVC080 04/03 A3009 RMK AO2 T00390028 TSNO
PAYA 121812Z AUTO 09003KT 10SM SCT008 BKN050 OVC100 04/03 A3008 RMK AO2 T00390028 TSNO
PAYA 121753Z AUTO 08005KT 10SM BKN050 BKN080 OVC095 04/03 A3007 RMK AO2 RAE07 SLP183 P0000 60011 T00390028 10044 20033 53034 TSNO
PAYA 121713Z AUTO 05006KT 10SM SCT023 BKN060 OVC085 04/03 A3005 RMK AO2 RAE07 P0000 T00440033 TSNO
PAYA 121653Z AUTO 05007KT 10SM -RA SCT019 BKN028 OVC060 04/03 A3003 RMK AO2 SLP169 P0000 T00440033 TSNO
PAYA 121553Z AUTO 04005KT 9SM -RA SCT016 OVC026 04/03 A3000 RMK AO2 SLP159 P0003 T00390028 TSNO
PAYA 121520Z AUTO 04004KT 10SM -RA FEW016 OVC028 04/03 A2998 RMK AO2 P0001 T00390028 TSNO
PAYA 121508Z AUTO 03005KT 10SM -RA OVC030 04/03 A2998 RMK AO2 P0001 T00390028 TSNO
PAYA 121453Z AUTO 03005KT 10SM -RA BKN028 OVC034 04/03 A2997 RMK AO2 SLP148 P0002 60008 T00390028 53010 TSNO
PAYA 121429Z AUTO 04005KT 9SM -RA SCT027 OVC032 04/03 A2996 RMK AO2 P0001 T00390028 TSNO